Aérodrome :
LOGIN :

S'inscrire | Disclaimer

   EN    FR    IT 

 










Légende :    VFR   VFR Marginal   IFR   IFR Intensif   IFR Très Intensif
Visi : 
Plafond : 
>= 8 km
>= 3000ft
5 à 8 km
1000 à 3000 ft
1500m à 5 km
500 à 1000 ft
800 à 1500m
200 à 500 ft
< 800m
< 200 ft
Symboles :   Orages  Brouillard  Fortes neiges  Fortes précipitations  Vent > 20 kt
SIGMETs :   Divers  Orages  Givrage  Turbulence  Onde Orograph.  Cendres Volcan.






- Altitude de l'aérodrome : 659 ft
- Code IATA : LGG


EBLG - Liège

DERNIER METAR :
  • 241750Z 23022G33KT 9999 -RA SCT018 BKN028 10/08 Q1008 TEMPO 23020G35KT 4000 RADZ BKN005

METARs EXPIRÉS :
  • 241720Z 23021KT 9999 SCT020 BKN028 11/07 Q1008 TEMPO 23020G35KT
  • 241650Z 23022G33KT 9999 SCT020 BKN042 11/07 Q1008 TEMPO 23020G35KT
  • 241620Z 22022KT 9999 SCT020 BKN042 11/07 Q1008 TEMPO 23020G35KT
  • 241550Z 22020G30KT 9999 SCT017 BKN022 11/08 Q1008 TEMPO 23020G35KT
  • 241520Z 22019KT 9999 SCT017 BKN022 11/08 Q1009 TEMPO 23020G35KT

TAF TAF EBLG
Valide du 24 à 18h jusqu'au 26 à 00h UTC


241703Z 2418/2524 23018G30KT 9999 SCT012 BKN025
TEMPO 2418/2502 3000 RA DZRA BKN007
BECMG 2423/2501 25012KT
TEMPO 2512/2524 25018G30KT 3500 SHRAGS
PROB30
TEMPO 2522/2524 1500 SHSNRA BKN006 SCT012CB



MET'MAP, la Météo Aéronautique d'un coup d'oeil ! - Copyright ORBIFLY Décembre 2007 - Disclaimer

ORBIFLY MET'MAP TEAM :

Programmation & Développement : Alexandra Zaïnal
Sur une idée originale de : Baudouin d'Aumeries
Assistance à la programmation : Marc-Olivier Méhu
Soutien technique & logistique : Manuel Goepfert

Contact : metmap@orbifly.com




SOURCES & CREDITS :

   NOAA